sensor_id;sensor_type;location;lat;lon;timestamp;temperature;humidity
31759;DHT22;36334;51.366;0.020;2023-01-15T00:00:55;6.60;99.90
31759;DHT22;36334;51.366;0.020;2023-01-15T00:03:41;6.60;99.90
31759;DHT22;36334;51.366;0.020;2023-01-15T00:06:27;6.60;99.90
31759;DHT22;36334;51.366;0.020;2023-01-15T00:09:14;6.50;99.90
31759;DHT22;36334;51.366;0.020;2023-01-15T00:12:00;6.50;99.90
31759;DHT22;36334;51.366;0.020;2023-01-15T00:14:47;6.60;99.90
31759;DHT22;36334;51.366;0.020;2023-01-15T00:17:33;6.50;99.90
31759;DHT22;36334;51.366;0.020;2023-01-15T00:20:19;6.50;99.90
31759;DHT22;36334;51.366;0.020;2023-01-15T00:23:09;6.50;99.90
31759;DHT22;36334;51.366;0.020;2023-01-15T00:26:17;6.50;99.90
31759;DHT22;36334;51.366;0.020;2023-01-15T00:29:23;6.50;99.90
31759;DHT22;36334;51.366;0.020;2023-01-15T00:32:15;6.50;99.90
31759;DHT22;36334;51.366;0.020;2023-01-15T00:35:01;6.50;99.90
31759;DHT22;36334;51.366;0.020;2023-01-15T00:37:48;6.40;99.90
31759;DHT22;36334;51.366;0.020;2023-01-15T00:40:35;6.40;99.90
31759;DHT22;36334;51.366;0.020;2023-01-15T00:43:21;6.50;99.90
31759;DHT22;36334;51.366;0.020;2023-01-15T00:46:07;6.30;99.90
31759;DHT22;36334;51.366;0.020;2023-01-15T00:48:54;6.40;99.90
31759;DHT22;36334;51.366;0.020;2023-01-15T00:51:40;6.30;99.90
31759;DHT22;36334;51.366;0.020;2023-01-15T00:54:26;6.30;99.90
31759;DHT22;36334;51.366;0.020;2023-01-15T00:57:12;6.30;99.90
31759;DHT22;36334;51.366;0.020;2023-01-15T00:59:58;6.30;99.90
31759;DHT22;36334;51.366;0.020;2023-01-15T01:02:45;6.30;99.90
31759;DHT22;36334;51.366;0.020;2023-01-15T01:05:31;6.30;99.90
31759;DHT22;36334;51.366;0.020;2023-01-15T01:08:17;6.30;99.90
31759;DHT22;36334;51.366;0.020;2023-01-15T01:11:08;6.20;99.90
31759;DHT22;36334;51.366;0.020;2023-01-15T01:13:56;6.20;99.90
31759;DHT22;36334;51.366;0.020;2023-01-15T01:16:46;6.10;99.90
31759;DHT22;36334;51.366;0.020;2023-01-15T01:19:32;6.10;99.90
31759;DHT22;36334;51.366;0.020;2023-01-15T01:22:18;6.10;99.90
31759;DHT22;36334;51.366;0.020;2023-01-15T01:25:07;6.10;99.90
31759;DHT22;36334;51.366;0.020;2023-01-15T01:27:55;6.10;99.90
31759;DHT22;36334;51.366;0.020;2023-01-15T01:30:40;6.00;99.90
31759;DHT22;36334;51.366;0.020;2023-01-15T01:33:30;6.00;99.90
31759;DHT22;36334;51.366;0.020;2023-01-15T01:36:17;6.00;99.90
31759;DHT22;36334;51.366;0.020;2023-01-15T01:39:05;5.90;99.90
31759;DHT22;36334;51.366;0.020;2023-01-15T01:41:51;5.90;99.90
31759;DHT22;36334;51.366;0.020;2023-01-15T01:47:31;5.90;99.90
31759;DHT22;36334;51.366;0.020;2023-01-15T01:50:18;5.90;99.90
31759;DHT22;36334;51.366;0.020;2023-01-15T01:53:18;5.80;99.90
31759;DHT22;36334;51.366;0.020;2023-01-15T01:56:07;5.80;99.90
31759;DHT22;36334;51.366;0.020;2023-01-15T01:58:58;5.80;99.90
31759;DHT22;36334;51.366;0.020;2023-01-15T02:01:48;5.70;99.90
31759;DHT22;36334;51.366;0.020;2023-01-15T02:04:36;5.70;99.90
31759;DHT22;36334;51.366;0.020;2023-01-15T02:07:23;5.70;99.90
31759;DHT22;36334;51.366;0.020;2023-01-15T02:10:15;5.70;99.90
31759;DHT22;36334;51.366;0.020;2023-01-15T02:28:15;5.60;99.90
31759;DHT22;36334;51.366;0.020;2023-01-15T02:31:11;5.60;99.90
31759;DHT22;36334;51.366;0.020;2023-01-15T02:37:02;5.60;99.90
31759;DHT22;36334;51.366;0.020;2023-01-15T02:39:52;5.60;99.90
31759;DHT22;36334;51.366;0.020;2023-01-15T02:42:43;5.70;99.90
31759;DHT22;36334;51.366;0.020;2023-01-15T02:45:35;5.50;99.90
31759;DHT22;36334;51.366;0.020;2023-01-15T02:48:30;5.40;99.90
31759;DHT22;36334;51.366;0.020;2023-01-15T02:51:22;5.50;99.90
31759;DHT22;36334;51.366;0.020;2023-01-15T02:54:13;5.50;99.90
31759;DHT22;36334;51.366;0.020;2023-01-15T02:57:02;5.50;99.90
31759;DHT22;36334;51.366;0.020;2023-01-15T02:59:51;5.40;99.90
31759;DHT22;36334;51.366;0.020;2023-01-15T03:02:50;5.50;99.90
31759;DHT22;36334;51.366;0.020;2023-01-15T03:05:42;5.40;99.90
31759;DHT22;36334;51.366;0.020;2023-01-15T03:08:30;5.40;99.90
31759;DHT22;36334;51.366;0.020;2023-01-15T03:11:20;5.40;99.90
31759;DHT22;36334;51.366;0.020;2023-01-15T03:14:21;5.40;99.90
31759;DHT22;36334;51.366;0.020;2023-01-15T03:17:34;5.30;99.90
31759;DHT22;36334;51.366;0.020;2023-01-15T03:20:26;5.40;99.90
31759;DHT22;36334;51.366;0.020;2023-01-15T03:23:13;5.80;99.90
31759;DHT22;36334;51.366;0.020;2023-01-15T03:26:02;5.30;99.90
31759;DHT22;36334;51.366;0.020;2023-01-15T03:28:50;5.30;99.90
31759;DHT22;36334;51.366;0.020;2023-01-15T03:31:37;5.30;99.90
31759;DHT22;36334;51.366;0.020;2023-01-15T03:34:51;5.20;99.90
31759;DHT22;36334;51.366;0.020;2023-01-15T03:37:37;5.60;99.90
31759;DHT22;36334;51.366;0.020;2023-01-15T03:40:23;5.20;99.90
31759;DHT22;36334;51.366;0.020;2023-01-15T03:43:13;5.20;99.90
31759;DHT22;36334;51.366;0.020;2023-01-15T03:46:38;5.20;99.90
31759;DHT22;36334;51.366;0.020;2023-01-15T03:53:21;5.20;99.90
31759;DHT22;36334;51.366;0.020;2023-01-15T03:56:37;5.20;99.90
31759;DHT22;36334;51.366;0.020;2023-01-15T03:59:34;5.20;99.90
31759;DHT22;36334;51.366;0.020;2023-01-15T04:02:23;5.10;99.90
31759;DHT22;36334;51.366;0.020;2023-01-15T04:05:11;5.10;99.90
31759;DHT22;36334;51.366;0.020;2023-01-15T04:07:58;5.10;99.90
31759;DHT22;36334;51.366;0.020;2023-01-15T04:10:57;5.10;99.90
31759;DHT22;36334;51.366;0.020;2023-01-15T04:13:49;5.10;99.90
31759;DHT22;36334;51.366;0.020;2023-01-15T04:16:46;5.00;99.90
31759;DHT22;36334;51.366;0.020;2023-01-15T04:19:32;5.50;99.90
31759;DHT22;36334;51.366;0.020;2023-01-15T04:22:24;5.10;99.90
31759;DHT22;36334;51.366;0.020;2023-01-15T04:25:11;5.10;99.90
31759;DHT22;36334;51.366;0.020;2023-01-15T04:27:57;5.10;99.90
31759;DHT22;36334;51.366;0.020;2023-01-15T04:30:43;5.10;99.90
31759;DHT22;36334;51.366;0.020;2023-01-15T04:33:29;5.10;99.90
31759;DHT22;36334;51.366;0.020;2023-01-15T04:36:15;5.10;99.90
31759;DHT22;36334;51.366;0.020;2023-01-15T04:39:02;5.10;99.90
31759;DHT22;36334;51.366;0.020;2023-01-15T04:41:51;5.10;99.90
31759;DHT22;36334;51.366;0.020;2023-01-15T04:45:01;5.00;99.90
31759;DHT22;36334;51.366;0.020;2023-01-15T04:47:47;5.20;99.90
31759;DHT22;36334;51.366;0.020;2023-01-15T04:50:33;5.00;99.90
31759;DHT22;36334;51.366;0.020;2023-01-15T04:53:25;5.10;99.90
31759;DHT22;36334;51.366;0.020;2023-01-15T04:56:11;4.90;99.90
31759;DHT22;36334;51.366;0.020;2023-01-15T04:59:00;5.00;99.90
31759;DHT22;36334;51.366;0.020;2023-01-15T05:01:46;5.00;99.90
31759;DHT22;36334;51.366;0.020;2023-01-15T05:04:48;4.90;99.90
31759;DHT22;36334;51.366;0.020;2023-01-15T05:07:35;4.90;99.90
31759;DHT22;36334;51.366;0.020;2023-01-15T05:10:22;5.00;99.90
31759;DHT22;36334;51.366;0.020;2023-01-15T05:13:08;4.90;99.90
31759;DHT22;36334;51.366;0.020;2023-01-15T05:15:55;5.00;99.90
31759;DHT22;36334;51.366;0.020;2023-01-15T05:18:42;5.00;99.90
31759;DHT22;36334;51.366;0.020;2023-01-15T05:21:32;5.00;99.90
31759;DHT22;36334;51.366;0.020;2023-01-15T05:24:19;4.90;99.90
31759;DHT22;36334;51.366;0.020;2023-01-15T05:27:04;5.00;99.90
31759;DHT22;36334;51.366;0.020;2023-01-15T05:29:53;4.90;99.90
31759;DHT22;36334;51.366;0.020;2023-01-15T05:32:39;4.90;99.90
31759;DHT22;36334;51.366;0.020;2023-01-15T05:35:25;4.90;99.90
31759;DHT22;36334;51.366;0.020;2023-01-15T05:38:11;4.90;99.90
31759;DHT22;36334;51.366;0.020;2023-01-15T05:40:57;5.00;99.90
31759;DHT22;36334;51.366;0.020;2023-01-15T05:43:43;4.90;99.90
31759;DHT22;36334;51.366;0.020;2023-01-15T05:46:29;5.00;99.90
31759;DHT22;36334;51.366;0.020;2023-01-15T05:49:18;5.00;99.90
31759;DHT22;36334;51.366;0.020;2023-01-15T05:52:05;5.10;99.90
31759;DHT22;36334;51.366;0.020;2023-01-15T05:54:51;5.10;99.90
31759;DHT22;36334;51.366;0.020;2023-01-15T05:57:37;5.10;99.90
31759;DHT22;36334;51.366;0.020;2023-01-15T06:00:23;5.10;99.90
31759;DHT22;36334;51.366;0.020;2023-01-15T06:03:10;5.20;99.90
31759;DHT22;36334;51.366;0.020;2023-01-15T06:05:56;5.20;99.90
31759;DHT22;36334;51.366;0.020;2023-01-15T06:08:45;5.20;99.90
31759;DHT22;36334;51.366;0.020;2023-01-15T06:11:31;5.30;99.90
31759;DHT22;36334;51.366;0.020;2023-01-15T06:14:18;5.30;99.90
31759;DHT22;36334;51.366;0.020;2023-01-15T06:17:04;5.40;99.90
31759;DHT22;36334;51.366;0.020;2023-01-15T06:19:50;5.40;99.90
31759;DHT22;36334;51.366;0.020;2023-01-15T06:22:36;5.40;99.90
31759;DHT22;36334;51.366;0.020;2023-01-15T06:25:23;5.40;99.90
31759;DHT22;36334;51.366;0.020;2023-01-15T06:28:10;5.50;99.90
31759;DHT22;36334;51.366;0.020;2023-01-15T06:30:56;5.40;99.90
31759;DHT22;36334;51.366;0.020;2023-01-15T06:33:43;5.50;99.90
31759;DHT22;36334;51.366;0.020;2023-01-15T06:36:29;5.50;99.90
31759;DHT22;36334;51.366;0.020;2023-01-15T06:39:15;5.40;99.90
31759;DHT22;36334;51.366;0.020;2023-01-15T06:42:03;5.40;99.90
31759;DHT22;36334;51.366;0.020;2023-01-15T06:45:11;5.40;99.90
31759;DHT22;36334;51.366;0.020;2023-01-15T06:48:16;5.40;99.90
31759;DHT22;36334;51.366;0.020;2023-01-15T06:51:01;5.30;99.90
31759;DHT22;36334;51.366;0.020;2023-01-15T06:53:47;5.30;99.90
31759;DHT22;36334;51.366;0.020;2023-01-15T06:56:34;5.30;99.90
31759;DHT22;36334;51.366;0.020;2023-01-15T06:59:20;5.30;99.90
31759;DHT22;36334;51.366;0.020;2023-01-15T07:02:06;5.20;99.90
31759;DHT22;36334;51.366;0.020;2023-01-15T07:04:52;5.30;99.90
31759;DHT22;36334;51.366;0.020;2023-01-15T07:07:38;5.20;99.90
31759;DHT22;36334;51.366;0.020;2023-01-15T07:10:24;5.20;99.90
31759;DHT22;36334;51.366;0.020;2023-01-15T07:13:10;5.20;99.90
31759;DHT22;36334;51.366;0.020;2023-01-15T07:16:00;5.20;99.90
31759;DHT22;36334;51.366;0.020;2023-01-15T07:18:50;5.20;99.90
31759;DHT22;36334;51.366;0.020;2023-01-15T07:21:36;5.20;99.90
31759;DHT22;36334;51.366;0.020;2023-01-15T07:24:22;5.20;99.90
31759;DHT22;36334;51.366;0.020;2023-01-15T07:27:08;5.20;99.90
31759;DHT22;36334;51.366;0.020;2023-01-15T07:29:54;5.20;99.90
31759;DHT22;36334;51.366;0.020;2023-01-15T07:32:40;5.20;99.90
31759;DHT22;36334;51.366;0.020;2023-01-15T07:35:26;5.20;99.90
31759;DHT22;36334;51.366;0.020;2023-01-15T07:38:12;5.30;99.90
31759;DHT22;36334;51.366;0.020;2023-01-15T07:40:59;5.30;99.90
31759;DHT22;36334;51.366;0.020;2023-01-15T07:44:04;5.30;99.90
31759;DHT22;36334;51.366;0.020;2023-01-15T07:47:20;5.30;99.90
31759;DHT22;36334;51.366;0.020;2023-01-15T07:50:27;5.20;99.90
31759;DHT22;36334;51.366;0.020;2023-01-15T07:53:14;5.30;99.90
31759;DHT22;36334;51.366;0.020;2023-01-15T07:56:00;5.20;99.90
31759;DHT22;36334;51.366;0.020;2023-01-15T07:58:46;5.30;99.90
31759;DHT22;36334;51.366;0.020;2023-01-15T08:01:35;5.30;99.90
31759;DHT22;36334;51.366;0.020;2023-01-15T08:04:21;5.30;99.90
31759;DHT22;36334;51.366;0.020;2023-01-15T08:07:07;5.40;99.90
31759;DHT22;36334;51.366;0.020;2023-01-15T08:09:54;5.60;99.90
31759;DHT22;36334;51.366;0.020;2023-01-15T08:12:40;5.40;99.90
31759;DHT22;36334;51.366;0.020;2023-01-15T08:15:45;5.50;99.90
31759;DHT22;36334;51.366;0.020;2023-01-15T08:18:32;5.60;99.90
31759;DHT22;36334;51.366;0.020;2023-01-15T08:21:17;5.70;99.90
31759;DHT22;36334;51.366;0.020;2023-01-15T08:24:04;5.70;99.90
31759;DHT22;36334;51.366;0.020;2023-01-15T08:26:51;5.80;99.90
31759;DHT22;36334;51.366;0.020;2023-01-15T08:29:37;6.10;99.90
31759;DHT22;36334;51.366;0.020;2023-01-15T08:32:24;6.00;99.90
31759;DHT22;36334;51.366;0.020;2023-01-15T08:35:10;5.80;99.90
31759;DHT22;36334;51.366;0.020;2023-01-15T08:37:58;5.80;99.90
31759;DHT22;36334;51.366;0.020;2023-01-15T08:40:44;6.10;99.90
31759;DHT22;36334;51.366;0.020;2023-01-15T08:43:46;5.80;99.90
31759;DHT22;36334;51.366;0.020;2023-01-15T08:46:33;5.80;99.90
31759;DHT22;36334;51.366;0.020;2023-01-15T08:49:20;5.80;99.90
31759;DHT22;36334;51.366;0.020;2023-01-15T08:52:06;5.80;99.90
31759;DHT22;36334;51.366;0.020;2023-01-15T08:54:52;5.80;99.90
31759;DHT22;36334;51.366;0.020;2023-01-15T08:57:38;5.80;99.90
31759;DHT22;36334;51.366;0.020;2023-01-15T09:00:24;5.90;99.90
31759;DHT22;36334;51.366;0.020;2023-01-15T09:03:10;5.90;99.90
31759;DHT22;36334;51.366;0.020;2023-01-15T09:06:00;6.00;99.90
31759;DHT22;36334;51.366;0.020;2023-01-15T09:08:46;6.10;99.90
31759;DHT22;36334;51.366;0.020;2023-01-15T09:11:32;6.10;99.90
31759;DHT22;36334;51.366;0.020;2023-01-15T09:14:20;6.20;99.90
31759;DHT22;36334;51.366;0.020;2023-01-15T09:17:27;6.30;99.90
31759;DHT22;36334;51.366;0.020;2023-01-15T09:20:18;6.30;99.90
31759;DHT22;36334;51.366;0.020;2023-01-15T09:23:04;6.40;99.90
31759;DHT22;36334;51.366;0.020;2023-01-15T09:26:00;6.50;99.90
31759;DHT22;36334;51.366;0.020;2023-01-15T09:28:46;6.50;99.90
31759;DHT22;36334;51.366;0.020;2023-01-15T09:31:32;6.60;99.90
31759;DHT22;36334;51.366;0.020;2023-01-15T09:34:18;6.70;99.90
31759;DHT22;36334;51.366;0.020;2023-01-15T09:37:04;6.70;99.90
31759;DHT22;36334;51.366;0.020;2023-01-15T09:39:50;6.80;99.90
31759;DHT22;36334;51.366;0.020;2023-01-15T09:42:50;6.90;99.90
31759;DHT22;36334;51.366;0.020;2023-01-15T09:45:48;7.00;99.90
31759;DHT22;36334;51.366;0.020;2023-01-15T09:48:41;7.00;99.90
31759;DHT22;36334;51.366;0.020;2023-01-15T09:54:38;7.10;99.90
31759;DHT22;36334;51.366;0.020;2023-01-15T09:57:27;7.20;99.90
31759;DHT22;36334;51.366;0.020;2023-01-15T10:00:18;7.30;99.90
31759;DHT22;36334;51.366;0.020;2023-01-15T10:03:41;7.40;99.90
31759;DHT22;36334;51.366;0.020;2023-01-15T10:06:36;7.60;99.90
31759;DHT22;36334;51.366;0.020;2023-01-15T10:09:33;7.50;99.90
31759;DHT22;36334;51.366;0.020;2023-01-15T10:12:29;7.60;99.90
31759;DHT22;36334;51.366;0.020;2023-01-15T10:15:45;7.60;99.90
31759;DHT22;36334;51.366;0.020;2023-01-15T10:18:32;7.50;99.90
31759;DHT22;36334;51.366;0.020;2023-01-15T10:21:57;7.50;99.90
31759;DHT22;36334;51.366;0.020;2023-01-15T10:24:57;7.50;99.90
31759;DHT22;36334;51.366;0.020;2023-01-15T10:27:46;7.60;99.90
31759;DHT22;36334;51.366;0.020;2023-01-15T10:30:42;7.50;99.90
31759;DHT22;36334;51.366;0.020;2023-01-15T10:33:57;7.50;99.90
31759;DHT22;36334;51.366;0.020;2023-01-15T10:36:55;7.50;99.90
31759;DHT22;36334;51.366;0.020;2023-01-15T10:43:22;7.60;99.90
31759;DHT22;36334;51.366;0.020;2023-01-15T10:46:15;7.60;99.90
31759;DHT22;36334;51.366;0.020;2023-01-15T10:49:11;7.60;99.90
31759;DHT22;36334;51.366;0.020;2023-01-15T10:52:07;7.60;99.90
31759;DHT22;36334;51.366;0.020;2023-01-15T10:55:24;7.50;99.90
31759;DHT22;36334;51.366;0.020;2023-01-15T10:58:36;7.50;99.90
31759;DHT22;36334;51.366;0.020;2023-01-15T11:01:25;7.50;99.90
31759;DHT22;36334;51.366;0.020;2023-01-15T11:04:13;7.50;99.90
31759;DHT22;36334;51.366;0.020;2023-01-15T11:06:59;7.50;99.90
31759;DHT22;36334;51.366;0.020;2023-01-15T11:09:47;7.50;99.90
31759;DHT22;36334;51.366;0.020;2023-01-15T11:12:34;7.60;99.90
31759;DHT22;36334;51.366;0.020;2023-01-15T11:15:40;7.40;99.90
31759;DHT22;36334;51.366;0.020;2023-01-15T11:18:48;7.40;99.90
31759;DHT22;36334;51.366;0.020;2023-01-15T11:21:53;7.40;99.90
31759;DHT22;36334;51.366;0.020;2023-01-15T11:24:59;7.50;99.90
31759;DHT22;36334;51.366;0.020;2023-01-15T11:27:48;7.50;99.90
31759;DHT22;36334;51.366;0.020;2023-01-15T11:30:36;7.50;99.90
31759;DHT22;36334;51.366;0.020;2023-01-15T11:33:25;7.60;99.90
31759;DHT22;36334;51.366;0.020;2023-01-15T11:36:24;7.70;99.90
31759;DHT22;36334;51.366;0.020;2023-01-15T11:39:23;7.80;99.90
31759;DHT22;36334;51.366;0.020;2023-01-15T11:42:15;8.00;99.90
31759;DHT22;36334;51.366;0.020;2023-01-15T11:45:21;8.00;99.90
31759;DHT22;36334;51.366;0.020;2023-01-15T11:48:26;8.20;99.90
31759;DHT22;36334;51.366;0.020;2023-01-15T11:51:51;8.20;99.90
31759;DHT22;36334;51.366;0.020;2023-01-15T11:54:44;8.30;99.90
31759;DHT22;36334;51.366;0.020;2023-01-15T11:57:31;8.30;99.90
31759;DHT22;36334;51.366;0.020;2023-01-15T12:00:28;8.30;99.90
31759;DHT22;36334;51.366;0.020;2023-01-15T12:03:21;8.40;99.90
31759;DHT22;36334;51.366;0.020;2023-01-15T12:06:12;8.30;99.90
31759;DHT22;36334;51.366;0.020;2023-01-15T12:09:30;8.40;99.90
31759;DHT22;36334;51.366;0.020;2023-01-15T12:30:49;8.10;99.90
31759;DHT22;36334;51.366;0.020;2023-01-15T12:34:03;8.00;99.90
31759;DHT22;36334;51.366;0.020;2023-01-15T12:36:57;8.00;99.90
31759;DHT22;36334;51.366;0.020;2023-01-15T12:39:53;7.90;99.90
31759;DHT22;36334;51.366;0.020;2023-01-15T12:42:41;7.90;99.90
31759;DHT22;36334;51.366;0.020;2023-01-15T12:45:53;8.00;99.90
31759;DHT22;36334;51.366;0.020;2023-01-15T12:48:48;8.10;99.90
31759;DHT22;36334;51.366;0.020;2023-01-15T12:52:04;8.20;99.90
31759;DHT22;36334;51.366;0.020;2023-01-15T12:55:03;8.20;99.90
31759;DHT22;36334;51.366;0.020;2023-01-15T12:58:04;8.30;99.90
31759;DHT22;36334;51.366;0.020;2023-01-15T13:01:04;8.40;99.90
31759;DHT22;36334;51.366;0.020;2023-01-15T13:10:21;8.40;99.90
31759;DHT22;36334;51.366;0.020;2023-01-15T13:13:23;8.30;99.90
31759;DHT22;36334;51.366;0.020;2023-01-15T13:22:15;8.40;99.90
31759;DHT22;36334;51.366;0.020;2023-01-15T13:28:22;8.60;99.90
31759;DHT22;36334;51.366;0.020;2023-01-15T13:31:23;8.70;99.90
31759;DHT22;36334;51.366;0.020;2023-01-15T13:37:36;8.90;99.90
31759;DHT22;36334;51.366;0.020;2023-01-15T13:40:40;8.90;99.90
31759;DHT22;36334;51.366;0.020;2023-01-15T13:43:36;8.80;99.90
31759;DHT22;36334;51.366;0.020;2023-01-15T13:46:24;8.80;99.90
31759;DHT22;36334;51.366;0.020;2023-01-15T13:49:19;8.70;99.90
31759;DHT22;36334;51.366;0.020;2023-01-15T13:52:25;8.50;99.90
31759;DHT22;36334;51.366;0.020;2023-01-15T13:58:26;8.30;99.90
31759;DHT22;36334;51.366;0.020;2023-01-15T14:04:06;8.20;99.90
31759;DHT22;36334;51.366;0.020;2023-01-15T14:06:58;8.20;99.90
31759;DHT22;36334;51.366;0.020;2023-01-15T14:09:44;8.30;99.90
31759;DHT22;36334;51.366;0.020;2023-01-15T14:22:26;8.50;99.90
31759;DHT22;36334;51.366;0.020;2023-01-15T14:25:47;8.50;99.90
31759;DHT22;36334;51.366;0.020;2023-01-15T14:28:57;8.40;99.90
31759;DHT22;36334;51.366;0.020;2023-01-15T14:34:38;8.40;99.90
31759;DHT22;36334;51.366;0.020;2023-01-15T14:37:32;8.40;99.90
31759;DHT22;36334;51.366;0.020;2023-01-15T14:40:29;8.30;99.90
31759;DHT22;36334;51.366;0.020;2023-01-15T14:43:19;8.20;99.90
31759;DHT22;36334;51.366;0.020;2023-01-15T14:46:14;8.10;99.90
31759;DHT22;36334;51.366;0.020;2023-01-15T14:49:03;8.10;99.90
31759;DHT22;36334;51.366;0.020;2023-01-15T14:51:50;8.00;99.90
31759;DHT22;36334;51.366;0.020;2023-01-15T14:54:38;7.90;99.90
31759;DHT22;36334;51.366;0.020;2023-01-15T14:57:25;7.90;99.90
31759;DHT22;36334;51.366;0.020;2023-01-15T15:00:16;7.90;99.90
31759;DHT22;36334;51.366;0.020;2023-01-15T15:03:16;7.80;99.90
31759;DHT22;36334;51.366;0.020;2023-01-15T15:06:04;7.80;99.90
31759;DHT22;36334;51.366;0.020;2023-01-15T15:08:54;7.70;99.90
31759;DHT22;36334;51.366;0.020;2023-01-15T15:11:46;7.70;99.90
31759;DHT22;36334;51.366;0.020;2023-01-15T15:15:12;7.70;99.90
31759;DHT22;36334;51.366;0.020;2023-01-15T15:18:14;7.60;99.90
31759;DHT22;36334;51.366;0.020;2023-01-15T15:21:08;7.80;99.90
31759;DHT22;36334;51.366;0.020;2023-01-15T15:24:20;7.50;99.90
31759;DHT22;36334;51.366;0.020;2023-01-15T15:27:21;7.50;99.90
31759;DHT22;36334;51.366;0.020;2023-01-15T15:30:10;7.50;99.90
31759;DHT22;36334;51.366;0.020;2023-01-15T15:32:56;7.40;99.90
31759;DHT22;36334;51.366;0.020;2023-01-15T15:35:54;7.40;99.90
31759;DHT22;36334;51.366;0.020;2023-01-15T15:38:53;7.30;99.90
31759;DHT22;36334;51.366;0.020;2023-01-15T15:41:46;7.30;99.90
31759;DHT22;36334;51.366;0.020;2023-01-15T15:44:54;7.20;99.90
31759;DHT22;36334;51.366;0.020;2023-01-15T15:48:20;7.20;99.90
31759;DHT22;36334;51.366;0.020;2023-01-15T15:54:28;7.10;99.90
31759;DHT22;36334;51.366;0.020;2023-01-15T15:57:17;7.00;99.90
31759;DHT22;36334;51.366;0.020;2023-01-15T16:00:04;7.00;99.90
31759;DHT22;36334;51.366;0.020;2023-01-15T16:03:05;6.90;99.90
31759;DHT22;36334;51.366;0.020;2023-01-15T16:06:04;6.90;99.90
31759;DHT22;36334;51.366;0.020;2023-01-15T16:08:53;6.80;99.90
31759;DHT22;36334;51.366;0.020;2023-01-15T16:11:39;6.70;99.90
31759;DHT22;36334;51.366;0.020;2023-01-15T16:14:27;6.60;99.90
31759;DHT22;36334;51.366;0.020;2023-01-15T16:17:15;6.60;99.90
31759;DHT22;36334;51.366;0.020;2023-01-15T16:20:04;6.50;99.90
31759;DHT22;36334;51.366;0.020;2023-01-15T16:23:02;6.50;99.90
31759;DHT22;36334;51.366;0.020;2023-01-15T16:25:58;6.50;99.90
31759;DHT22;36334;51.366;0.020;2023-01-15T16:28:51;6.40;99.90
31759;DHT22;36334;51.366;0.020;2023-01-15T16:31:40;6.30;99.90
31759;DHT22;36334;51.366;0.020;2023-01-15T16:34:29;6.30;99.90
31759;DHT22;36334;51.366;0.020;2023-01-15T16:37:26;6.20;99.90
31759;DHT22;36334;51.366;0.020;2023-01-15T16:43:16;6.10;99.90
31759;DHT22;36334;51.366;0.020;2023-01-15T16:46:16;6.10;99.90
31759;DHT22;36334;51.366;0.020;2023-01-15T16:49:25;6.00;99.90
31759;DHT22;36334;51.366;0.020;2023-01-15T16:52:34;5.90;99.90
31759;DHT22;36334;51.366;0.020;2023-01-15T16:55:34;5.90;99.90
31759;DHT22;36334;51.366;0.020;2023-01-15T16:58:31;5.80;99.90
31759;DHT22;36334;51.366;0.020;2023-01-15T17:01:36;5.80;99.90
31759;DHT22;36334;51.366;0.020;2023-01-15T17:07:24;5.80;99.90
31759;DHT22;36334;51.366;0.020;2023-01-15T17:10:24;5.70;99.90
31759;DHT22;36334;51.366;0.020;2023-01-15T17:13:20;5.70;99.90
31759;DHT22;36334;51.366;0.020;2023-01-15T17:19:04;5.70;99.90
31759;DHT22;36334;51.366;0.020;2023-01-15T17:21:50;5.70;99.90
31759;DHT22;36334;51.366;0.020;2023-01-15T17:24:36;5.70;99.90
31759;DHT22;36334;51.366;0.020;2023-01-15T17:27:23;5.70;99.90
31759;DHT22;36334;51.366;0.020;2023-01-15T17:30:11;5.70;99.90
31759;DHT22;36334;51.366;0.020;2023-01-15T17:33:01;5.60;99.90
31759;DHT22;36334;51.366;0.020;2023-01-15T17:35:48;5.60;99.90
31759;DHT22;36334;51.366;0.020;2023-01-15T17:38:34;5.60;99.90
31759;DHT22;36334;51.366;0.020;2023-01-15T17:41:21;5.60;99.90
31759;DHT22;36334;51.366;0.020;2023-01-15T17:44:09;5.50;99.90
31759;DHT22;36334;51.366;0.020;2023-01-15T17:46:55;5.50;99.90
31759;DHT22;36334;51.366;0.020;2023-01-15T17:49:43;5.50;99.90
31759;DHT22;36334;51.366;0.020;2023-01-15T17:52:29;5.40;99.90
31759;DHT22;36334;51.366;0.020;2023-01-15T17:55:20;5.40;99.90
31759;DHT22;36334;51.366;0.020;2023-01-15T17:58:25;5.40;99.90
31759;DHT22;36334;51.366;0.020;2023-01-15T18:01:33;5.40;99.90
31759;DHT22;36334;51.366;0.020;2023-01-15T18:04:45;5.40;99.90
31759;DHT22;36334;51.366;0.020;2023-01-15T18:07:53;5.30;99.90
31759;DHT22;36334;51.366;0.020;2023-01-15T18:10:41;5.30;99.90
31759;DHT22;36334;51.366;0.020;2023-01-15T18:13:28;5.30;99.90
31759;DHT22;36334;51.366;0.020;2023-01-15T18:16:13;5.30;99.90
31759;DHT22;36334;51.366;0.020;2023-01-15T18:19:01;5.30;99.90
31759;DHT22;36334;51.366;0.020;2023-01-15T18:21:48;5.30;99.90
31759;DHT22;36334;51.366;0.020;2023-01-15T18:24:35;5.30;99.90
31759;DHT22;36334;51.366;0.020;2023-01-15T18:27:22;5.30;99.90
31759;DHT22;36334;51.366;0.020;2023-01-15T18:30:14;5.30;99.90
31759;DHT22;36334;51.366;0.020;2023-01-15T18:33:00;5.30;99.90
31759;DHT22;36334;51.366;0.020;2023-01-15T18:35:48;5.30;99.90
31759;DHT22;36334;51.366;0.020;2023-01-15T18:38:36;5.30;99.90
31759;DHT22;36334;51.366;0.020;2023-01-15T18:41:23;5.30;99.90
31759;DHT22;36334;51.366;0.020;2023-01-15T18:44:23;5.20;99.90
31759;DHT22;36334;51.366;0.020;2023-01-15T18:47:28;5.20;99.90
31759;DHT22;36334;51.366;0.020;2023-01-15T18:50:15;5.20;99.90
31759;DHT22;36334;51.366;0.020;2023-01-15T18:53:01;5.20;99.90
31759;DHT22;36334;51.366;0.020;2023-01-15T18:55:47;5.30;99.90
31759;DHT22;36334;51.366;0.020;2023-01-15T18:58:33;5.30;99.90
31759;DHT22;36334;51.366;0.020;2023-01-15T19:01:19;5.30;99.90
31759;DHT22;36334;51.366;0.020;2023-01-15T19:04:05;5.40;99.90
31759;DHT22;36334;51.366;0.020;2023-01-15T19:06:52;5.40;99.90
31759;DHT22;36334;51.366;0.020;2023-01-15T19:09:38;5.50;99.90
31759;DHT22;36334;51.366;0.020;2023-01-15T19:12:24;5.50;99.90
31759;DHT22;36334;51.366;0.020;2023-01-15T19:15:16;5.50;99.90
31759;DHT22;36334;51.366;0.020;2023-01-15T19:18:21;5.40;99.90
31759;DHT22;36334;51.366;0.020;2023-01-15T19:21:26;5.40;99.90
31759;DHT22;36334;51.366;0.020;2023-01-15T19:24:12;5.30;99.90
31759;DHT22;36334;51.366;0.020;2023-01-15T19:26:58;5.30;99.90
31759;DHT22;36334;51.366;0.020;2023-01-15T19:29:44;5.20;99.90
31759;DHT22;36334;51.366;0.020;2023-01-15T19:32:31;5.20;99.90
31759;DHT22;36334;51.366;0.020;2023-01-15T19:35:17;5.20;99.90
31759;DHT22;36334;51.366;0.020;2023-01-15T19:38:04;5.20;99.90
31759;DHT22;36334;51.366;0.020;2023-01-15T19:40:53;5.10;99.90
31759;DHT22;36334;51.366;0.020;2023-01-15T19:43:59;5.10;99.90
31759;DHT22;36334;51.366;0.020;2023-01-15T19:47:04;5.00;99.90
31759;DHT22;36334;51.366;0.020;2023-01-15T19:50:12;5.00;99.90
31759;DHT22;36334;51.366;0.020;2023-01-15T19:53:05;5.00;99.90
31759;DHT22;36334;51.366;0.020;2023-01-15T19:55:51;4.90;99.90
31759;DHT22;36334;51.366;0.020;2023-01-15T19:58:38;4.90;99.90
31759;DHT22;36334;51.366;0.020;2023-01-15T20:01:24;4.90;99.90
31759;DHT22;36334;51.366;0.020;2023-01-15T20:04:11;4.90;99.90